Map

Track Data

SID SEASON NUMBER BASIN SUBBASIN NAME ISO_TIME NATURE LAT LON WMO_WIND WMO_PRES WMO_AGENCY TRACK_TYPE DIST2LAND LANDFALL IFLAG USA_AGENCY USA_ATCF_ID USA_LAT USA_LON USA_RECORD USA_STATUS USA_WIND USA_PRES USA_SSHS USA_R34_NE USA_R34_SE USA_R34_SW USA_R34_NW USA_R50_NE USA_R50_SE USA_R50_SW USA_R50_NW USA_R64_NE USA_R64_SE USA_R64_SW USA_R64_NW USA_POCI USA_ROCI USA_RMW USA_EYE TOKYO_LAT TOKYO_LON TOKYO_GRADE TOKYO_WIND TOKYO_PRES TOKYO_R50_DIR TOKYO_R50_LONG TOKYO_R50_SHORT TOKYO_R30_DIR TOKYO_R30_LONG TOKYO_R30_SHORT TOKYO_LAND CMA_LAT CMA_LON CMA_CAT CMA_WIND CMA_PRES HKO_LAT HKO_LON HKO_CAT HKO_WIND HKO_PRES NEWDELHI_LAT NEWDELHI_LON NEWDELHI_GRADE NEWDELHI_WIND NEWDELHI_PRES NEWDELHI_CI NEWDELHI_DP NEWDELHI_POCI REUNION_LAT REUNION_LON REUNION_TYPE REUNION_WIND REUNION_PRES REUNION_TNUM REUNION_CI REUNION_RMW REUNION_R34_NE REUNION_R34_SE REUNION_R34_SW REUNION_R34_NW REUNION_R50_NE REUNION_R50_SE REUNION_R50_SW REUNION_R50_NW REUNION_R64_NE REUNION_R64_SE REUNION_R64_SW REUNION_R64_NW BOM_LAT BOM_LON BOM_TYPE BOM_WIND BOM_PRES BOM_TNUM BOM_CI BOM_RMW BOM_R34_NE BOM_R34_SE BOM_R34_SW BOM_R34_NW BOM_R50_NE BOM_R50_SE BOM_R50_SW BOM_R50_NW BOM_R64_NE BOM_R64_SE BOM_R64_SW BOM_R64_NW BOM_ROCI BOM_POCI BOM_EYE BOM_POS_METHOD BOM_PRES_METHOD NADI_LAT NADI_LON NADI_CAT NADI_WIND NADI_PRES WELLINGTON_LAT WELLINGTON_LON WELLINGTON_WIND WELLINGTON_PRES DS824_LAT DS824_LON DS824_STAGE DS824_WIND DS824_PRES TD9636_LAT TD9636_LON TD9636_STAGE TD9636_WIND TD9636_PRES TD9635_LAT TD9635_LON TD9635_WIND TD9635_PRES TD9635_ROCI NEUMANN_LAT NEUMANN_LON NEUMANN_CLASS NEUMANN_WIND NEUMANN_PRES MLC_LAT MLC_LON MLC_CLASS MLC_WIND MLC_PRES USA_GUST BOM_GUST BOM_GUST_PER REUNION_GUST REUNION_GUST_PER USA_SEAHGT USA_SEARAD_NE USA_SEARAD_SE USA_SEARAD_SW USA_SEARAD_NW STORM_SPEED STORM_DIR
1957072S22042 1957 24 SI MM NOT_NAMED 1957-03-13 06:00:00 TS -22.0000 42.0000 main 125 30 O_____________ jtwc_sh SH271957 -22.0000 42.0000 -1 26 69
1957072S22042 1957 24 SI MM NOT_NAMED 1957-03-13 09:00:00 TS -21.5265 43.3143 main 20 0 P_____________ SH271957 -21.4621 43.3179 -1 25 71
1957072S22042 1957 24 SI MM NOT_NAMED 1957-03-13 12:00:00 TS -21.1912 44.5960 main 0 0 O_____________ jtwc_sh SH271957 -21.1000 44.6000 -1 24 80
1957072S22042 1957 24 SI MM NOT_NAMED 1957-03-13 15:00:00 TS -21.1146 45.8276 main 0 0 P_____________ SH271957 -21.0567 45.8294 -1 22 93
1957072S22042 1957 24 SI MM NOT_NAMED 1957-03-13 18:00:00 TS -21.3000 47.0000 main 0 0 O_____________ jtwc_sh SH271957 -21.3000 47.0000 -1 22 105
1957072S22042 1957 24 SI MM NOT_NAMED 1957-03-13 21:00:00 TS -21.6978 48.1314 main 0 0 P_____________ SH271957 -21.7320 48.1443 -1 22 115
1957072S22042 1957 24 SI MM NOT_NAMED 1957-03-14 00:00:00 TS -22.2508 49.1805 main 117 117 O_____________ jtwc_sh SH271957 -22.3000 49.2000 -1 22 121
1957072S22042 1957 24 SI MM NOT_NAMED 1957-03-14 03:00:00 TS -22.8242 50.1377 main 224 224 P_____________ SH271957 -22.9063 50.0103 -1 20 124
1957072S22042 1957 24 SI MM NOT_NAMED 1957-03-14 06:00:00 TS -23.4000 51.0000 main 331 331 O_____________ jtwc_sh SH271957 -23.4000 51.0000 -1 19 121
1957072S22042 1957 24 SI MM NOT_NAMED 1957-03-14 09:00:00 TS -23.8308 51.9525 main 439 404 P_____________ SH271957 -23.4835 52.7705 -1 20 114
1957072S22042 1957 24 SI MM NOT_NAMED 1957-03-14 12:00:00 TS -24.1948 52.9883 main 400 392 O________O____ jtwc_sh SH261957 -23.6000 54.4000 -1 -23.6000 54.4000 TC 25 19 116
1957072S22042 1957 24 SI MM NOT_NAMED 1957-03-14 15:00:00 TS -24.6607 53.8456 main 409 402 P________P____ SH261957 -24.2291 55.0378 -1 -24.3202 54.8441 TC 25 18 124
1957072S22042 1957 24 SI MM NOT_NAMED 1957-03-14 18:00:00 TS -25.1636 54.5909 main 436 434 O________OO___ jtwc_sh SH261957 -25.0000 55.3000 -1 -25.0000 55.3000 TC 25 -25.0000 55.3000 1 16 128
1957072S22042 1957 24 SI MM NOT_NAMED 1957-03-14 21:00:00 TS -25.6503 55.2505 main 481 481 P________PP___ SH261957 -25.6025 55.7651 -1 -25.6025 55.7651 TC 25 -25.5185 55.7414 1 15 128
1957072S22042 1957 24 SI MM NOT_NAMED 1957-03-15 00:00:00 TS -26.0889 55.8855 main 526 526 O________OP___ jtwc_sh SH261957 -26.1000 56.2000 -1 -26.1000 56.2000 TC 25 -26.0091 56.1680 1 14 128
1957072S22042 1957 24 SI MM NOT_NAMED 1957-03-15 03:00:00 TS -26.4786 56.4482 main 575 575 P________PP___ SH261957 -26.5024 56.5804 -1 -26.5024 56.5804 TC 25 -26.4450 56.5608 1 12 128
1957072S22042 1957 24 SI MM NOT_NAMED 1957-03-15 06:00:00 TS -26.8000 56.9000 main 617 617 O________OO___ jtwc_sh SH261957 -26.8000 56.9000 -1 -26.8000 56.9000 TC 25 -26.8000 56.9000 1 9 131
1957072S22042 1957 24 SI MM NOT_NAMED 1957-03-15 09:00:00 TS -27.0391 57.1773 main 646 646 P________PP___ SH261957 -27.0299 57.1802 -1 -27.0299 57.1802 TC 25 -27.0575 57.1714 1 6 133
1957072S22042 1957 24 SI MM NOT_NAMED 1957-03-15 12:00:00 TS -27.2131 57.3948 main 673 673 O________OP___ jtwc_sh SH261957 -27.2000 57.4000 -1 -27.2000 57.4000 TC 25 -27.2393 57.3844 1 5 133
1957072S22042 1957 24 SI MM NOT_NAMED 1957-03-15 15:00:00 TS -27.3638 57.5718 main 700 700 P________PP___ SH261957 -27.3575 57.5801 -1 -27.3575 57.5801 TC 25 -27.3764 57.5552 1 4 136
1957072S22042 1957 24 SI MM NOT_NAMED 1957-03-15 18:00:00 TS -27.5000 57.7000 main 713 713 O________OO___ jtwc_sh SH261957 -27.5000 57.7000 -1 -27.5000 57.7000 TC 25 -27.5000 57.7000 1 3 148
1957072S22042 1957 24 SI MM NOT_NAMED 1957-03-15 21:00:00 TS -27.6413 57.7642 main 727 727 P________PP___ SH261957 -27.6499 57.7427 -1 -27.6499 57.7427 TC 25 -27.6241 57.8072 1 3 157
1957072S22042 1957 24 SI MM NOT_NAMED 1957-03-16 00:00:00 TS -27.7822 57.8332 main 748 748 O________OP___ jtwc_sh SH261957 -27.8000 57.8000 -1 -27.8000 57.8000 TC 25 -27.7466 57.8996 1 3 145
1957072S22042 1957 24 SI MM NOT_NAMED 1957-03-16 03:00:00 TS -27.9119 57.9759 main 765 765 P________PP___ SH261957 -27.9199 57.9553 -1 -27.9199 57.9553 TC 25 -27.8959 58.0170 1 5 134
1957072S22042 1957 24 SI MM NOT_NAMED 1957-03-16 06:00:00 TS -28.1000 58.2000 main 793 793 O________OO___ jtwc_sh SH261957 -28.1000 58.2000 -1 -28.1000 58.2000 TC 25 -28.1000 58.2000 1 7 137
1957072S22042 1957 24 SI MM NOT_NAMED 1957-03-16 09:00:00 TS -28.4164 58.5139 main 834 834 P________PP___ SH261957 -28.4200 58.5199 -1 -28.4200 58.5199 TC 25 -28.4092 58.5019 1 9 139
1957072S22042 1957 24 SI MM NOT_NAMED 1957-03-16 12:00:00 TS -28.7902 58.8911 main 890 890 O________OP___ jtwc_sh SH261957 -28.8000 58.9000 -1 -28.8000 58.9000 TC 25 -28.7706 58.8732 1 10 137
1957072S22042 1957 24 SI MM NOT_NAMED 1957-03-16 15:00:00 TS -29.1589 59.2944 main 947 947 P________PP___ SH261957 -29.1650 59.3000 -1 -29.1650 59.3000 TC 25 -29.1466 59.2832 1 10 135
1957072S22042 1957 24 SI MM NOT_NAMED 1957-03-16 18:00:00 TS -29.5000 59.7000 main 993 993 O________OO___ jtwc_sh SH261957 -29.5000 59.7000 -1 -29.5000 59.7000 TC 25 -29.5000 59.7000 1 9 133
1957072S22042 1957 24 SI MM NOT_NAMED 1957-03-16 21:00:00 TS -29.7773 60.0661 main 1040 1040 P________PP___ SH261957 -29.7648 60.0505 -1 -29.7648 60.0505 TC 25 -29.8025 60.0974 1 8 130
1957072S22042 1957 24 SI MM NOT_NAMED 1957-03-17 00:00:00 TS -30.0201 60.4251 main 1073 1073 O________OP___ jtwc_sh SH261957 -30.0000 60.4000 -1 -30.0000 60.4000 TC 25 -30.0602 60.4753 1 8 127
1957072S22042 1957 24 SI MM NOT_NAMED 1957-03-17 03:00:00 TS -30.2595 60.8048 main 1121 1121 P________PP___ SH261957 -30.2453 60.7869 -1 -30.2453 60.7869 TC 25 -30.2878 60.8405 1 8 126
1957072S22042 1957 24 SI MM NOT_NAMED 1957-03-17 06:00:00 TS -30.5000 61.2000 main 1159 O________OO___ jtwc_sh SH261957 -30.5000 61.2000 -1 -30.5000 61.2000 TC 25 -30.5000 61.2000 1 8 125

About IBTrACS Database

This database is a web-friendly format of International Best Track Archive for Climate Stewardship (IBTrACS), a global best track data archive curated by NOAA dating back to 1842.

Updated: 2021-12-06